Welcome, Aviation Weather Update - National Weather Forecasting, LLC

National Weather Forecasting,LLC
Located in the Teterboro Airport/Meadowlands Complex Area

This Aviation Website is Exclusively For our clients: "Aviation Flight Departments and their Pilots"

This update by Meteorologist:

This forecast as of: 2143Z - FRIDAY - 12/30/16

THIS FORECAST VALID UNTIL:  06Z – SATURDAY – 12/31/16
NEXT UPDATE:  1030Z – SATURDAY – 12/31/16

DEMONSTRATION OF OUR ONLINE FREQUENTLY UPDATED AVIATION FORECASTS, CUSTOM MADE TAFS, ETC.

THIS WAS AN ACTUAL UPDATED AVIATION REPORT/FORECAST DONE BY OUR COMPANY ON FRIDAY AFTERNOON, NOTE THE NEXT UPDATE FOR NEXT MORNING AT 1030Z SATURDAY.

SUMMARY:  CHC SHSN/SQSN TODAY (BETTER CHC N/W OF NYC), SUB-VFR CONDITIONS PSBL, OTHERWISE VFR OUTSIDE OF ANY SHSN/SQSN.  WINDS WILL BE OUT OF THE W TODAY AT 10 TO 20 KTS, PSBL G UP TO 35 KTS.  VFR TONIGHT, WINDS DIMINISHING OUT OF THE W.  VFR TOMORROW (SATURDAY), THEN CHC -SHSN TOMORROW NIGHT, SUB-VFR CONDITIONS PSBL.   

CONVECTIVE POTENTIAL:  NONE UNTIL FURTHER NOTICE.

FOG POTENTIAL:  CHC VIS REDUCED IN SHSN TODAY, OTHERWISE NONE.

ICING POTENTIAL:  CHC ICG IN SHSN OR IN CLOUDS TODAY.

FREEZING LEVEL:  SFC-FL020 UNTIL FURTHER NOTICE.

WINDS ALOFT:  NOW THRU 15Z TODAY:
1000 TO 3000 FEET:  2929
3000 TO 6000 FEET:  2829

15Z TODAY THRU 00Z SATURDAY:
1000 TO 3000 FEET:  2928
3000 TO 6000 FEET:  3028

DISCLAIMER-TERMINAL FORECASTS: (NOTE) ALTHOUGH PILOTS WILL FIND THIS SITE BY NATIONAL WEATHER FORECASTING, LLC TO BE A VALUABLE RESOURCE, THEY ARE REQUIRED TO USE WEATHER BRIEFINGS FROM AN APPROVED FAA SOURCE. (PLEASE SEE NATIONAL WEATHER SERVICE OFFICIAL TAF’s FOR THE AREA ). THE FOLLOWING TAFS ARE PREPARED BY OUR STAFF OF METEOROLOGISTS AT NATIONAL WEATHER FORECASTING. The operator can look at our custom made TAFs, but cannot use it to dispatch aircraft or select alternates. FOR OFFICIAL TAFs…PLEASE SEE NATIONAL WEATHER SERVICE TAF’s FOR THE AREAS OF INTEREST. National Weather Forecasting, LLC, cannot be held responsible for the TAFs made here in this website nor are we responsible for the TAFs provided via phone or any other means of communication. For our Terminal Aerodrome Forecasts, SEE BELOW…..
_____________________________________________________________

OUR CUSTOM MADE TERMINAL FORECASTS IN 3 HOUR INCREMENTS FOR  NEXT 30 HOURS:  VALID THRU 19Z SATURDAY:

KJRA 301230Z 3013/3119 26015G25KT P6SM SCT040 SCT150
PROB30 3014/3022 2SM SHSN BKN015 OVC040
FM301600 27015G25KT P6SM BKN040
FM301900 28015G25KT P6SM BKN040
FM302200 28015G25KT P6SM BKN040
FM310100 28015G25KT P6SM SCT040
FM310400 29012G20KT P6SM SCT040
FM310700 28010G15KT P6SM SCT040
FM311000 27008KT P6SM SCT100
FM311300 26010G15KT P6SM BKN100
FM311600 24012G17KT P6SM BKN150=

KTEB 301230Z 3013/3119 25015G25KT P6SM SCT040 SCT150
PROB30 3014/3022 2SM SHSN BKN015 OVC040
FM301600 27015G25KT P6SM BKN040
FM301900 27015G25KT P6SM BKN040
FM302200 28015G25KT P6SM BKN040
FM310100 28015G25KT P6SM SCT040
FM310400 29012G20KT P6SM SCT040
FM310700 28010G15KT P6SM SCT040
FM311000 25008KT P6SM SCT100
FM311300 25010G15KT P6SM BKN100
FM311600 22012G17KT P6SM BKN150=

KFRG 301230Z 3013/3119 27017G27KT P6SM SCT060 SCT150
FM301600 28017G27KT P6SM SCT040 BKN060
PROB30 3016/3022 2SM SHSN BKN015 OVC040
FM301900 28018G28KT P6SM BKN040
FM302200 28018G28KT P6SM BKN040
FM310100 29018G28KT P6SM SCT040
FM310400 29016G24KT P6SM SCT040
FM310700 29012G18KT P6SM SCT040
FM311000 27010G15KT P6SM SCT100
FM311300 26012G17KT P6SM BKN100
FM311600 23014G20KT P6SM BKN150=

KHPN 301230Z 3013/3119 28015G25KT P6SM SCT040 SCT150
PROB30 3014/3022 2SM SHSN BKN015 OVC040
FM301600 29015G25KT P6SM BKN040
FM301900 29015G25KT P6SM BKN040
FM302200 29015G25KT P6SM BKN040
FM310100 29015G25KT P6SM SCT040
FM310400 29012G20KT P6SM SCT040
FM310700 29010G15KT P6SM SCT040
FM311000 28008KT P6SM SCT100
FM311300 26010G15KT P6SM BKN100
FM311600 25012G17KT P6SM BKN150=

KHTO 301230Z 3013/3119 27017G27KT P6SM SCT060 SCT150
FM301600 28017G27KT P6SM SCT040 BKN060
FM301900 28018G28KT P6SM BKN040
FM302200 28018G28KT P6SM BKN040
FM310100 29018G28KT P6SM SCT040
FM310400 29016G24KT P6SM SCT040
FM310700 29012G18KT P6SM SCT040
FM311000 27010G15KT P6SM SCT100
FM311300 26012G17KT P6SM BKN100
FM311600 25014G20KT P6SM BKN150=

EXTENDED OUTLOOK:  CHC LEFTOVER -SHSN SUNDAY MORNING, OTHERWISE VFR.  CHC WINTRY MIX CHANGING TO -RA MONDAY, SUB-VFR CONDITIONS LIKELY.  RA, SUB-VFR TUESDAY.

OFFICIAL GOVERNMENT METARs and TAFs: Enter 4-letter ICAO station identifier. If more than one, be sure to insert one or more spaces between stations. (Example: KDEN KBOS KORD @KS)

     Raw Format
 Translated

 

(click to view full size images)
current NYC area radar - click for full size image
Latest NWS radar from New York City

latest Albany sector satellite image - click for full size image
Latest Albany sector satellite image

latest Albany sector satellite loop - click for full size image
Latest Albany sector satellite loop

Current Observations:
Bethpage
East Hampton

Click here for
Aviation Weather Maps.

Click here for
Latest TFRs and NOTAMs.

Click here for
Airmets and Sigmets.

Local Observations and Radar